Time;durP1;ratioP1;P1;durP2;ratioP2;P2;SDS_P1;SDS_P2;PMS_P1;PMS_P2;Temp;Humidity;BMP_temperature;BMP_pressure;BME280_temperature;BME280_humidity;BME280_pressure;Samples;Min_cycle;Max_cycle;Signal;HPM_P1;HPM_P2
2022/09/24 00:02:19;;;;;;;9.43;8.53;;;11.70;99.90;;;;;;4990212;28;20201;-91
2022/09/24 00:04:49;;;;;;;10.33;9.30;;;11.70;99.90;;;;;;4981975;28;20437;-89
2022/09/24 00:07:15;;;;;;;9.77;8.93;;;11.70;99.90;;;;;;4992365;28;20448;-91
2022/09/24 00:09:40;;;;;;;10.13;9.23;;;11.80;99.90;;;;;;4991703;28;20865;-90
2022/09/24 00:12:15;;;;;;;9.70;8.73;;;11.80;99.90;;;;;;4991309;28;20468;-91
2022/09/24 00:14:56;;;;;;;9.60;8.70;;;11.70;99.90;;;;;;4990906;28;21771;-92
2022/09/24 00:17:23;;;;;;;10.30;9.40;;;11.70;99.90;;;;;;4986899;28;20495;-92
2022/09/24 00:20:24;;;;;;;10.27;9.37;;;11.70;99.90;;;;;;4989211;28;20454;-92
2022/09/24 00:23:11;;;;;;;9.73;9.00;;;11.60;99.90;;;;;;4991214;28;20475;-91
2022/09/24 00:28:31;;;;;;;12.93;11.70;;;11.70;99.90;;;;;;4990115;28;20676;-92
2022/09/24 00:30:58;;;;;;;12.57;10.80;;;11.60;99.90;;;;;;4987442;28;20479;-90
2022/09/24 00:33:27;;;;;;;11.77;10.57;;;11.50;99.90;;;;;;4987322;28;20455;-92
2022/09/24 00:35:57;;;;;;;11.33;10.43;;;11.50;99.90;;;;;;5001013;28;20555;-91
2022/09/24 00:38:28;;;;;;;11.47;10.47;;;11.40;99.90;;;;;;4990857;28;23321;-93
2022/09/24 00:41:05;;;;;;;11.30;10.30;;;11.40;99.90;;;;;;5010590;28;20460;-92
2022/09/24 00:43:36;;;;;;;12.17;11.03;;;11.40;99.90;;;;;;4985910;28;20449;-91
2022/09/24 00:46:24;;;;;;;11.27;10.10;;;11.40;99.90;;;;;;4985941;28;20566;-90
2022/09/24 00:48:53;;;;;;;11.73;10.27;;;11.30;99.90;;;;;;4985537;28;20537;-90
2022/09/24 00:51:22;;;;;;;11.10;10.10;;;11.30;99.90;;;;;;4988034;28;20444;-91
2022/09/24 00:53:53;;;;;;;12.00;10.90;;;11.30;99.90;;;;;;4987248;28;20594;-92
2022/09/24 00:56:21;;;;;;;10.87;9.97;;;11.30;99.90;;;;;;5002272;28;20476;-91
2022/09/24 00:58:51;;;;;;;11.00;10.00;;;11.40;99.90;;;;;;4988130;28;21313;-91
2022/09/24 01:01:19;;;;;;;11.80;10.50;;;11.40;99.90;;;;;;4988029;28;20531;-91
2022/09/24 01:03:53;;;;;;;12.10;11.00;;;11.30;99.90;;;;;;4985609;28;20431;-91
2022/09/24 01:06:20;;;;;;;15.13;12.30;;;11.20;99.90;;;;;;5000412;28;20483;-91
2022/09/24 01:08:47;;;;;;;12.43;11.33;;;11.20;99.90;;;;;;4971157;28;20586;-90
2022/09/24 01:11:35;;;;;;;12.13;11.03;;;11.20;99.90;;;;;;5005765;28;20472;-93
2022/09/24 01:15:01;;;;;;;13.80;12.60;;;11.20;99.90;;;;;;4990947;28;20451;-93
2022/09/24 01:18:08;;;;;;;12.60;11.47;;;11.20;99.90;;;;;;4993462;28;20490;-92
2022/09/24 01:21:05;;;;;;;12.20;11.13;;;11.10;99.90;;;;;;4987966;28;20566;-92
2022/09/24 01:23:45;;;;;;;13.10;11.87;;;11.10;99.90;;;;;;5016910;28;20531;-92
2022/09/24 01:26:25;;;;;;;12.30;11.00;;;11.10;99.90;;;;;;5001443;28;20656;-91
2022/09/24 01:29:12;;;;;;;12.07;11.00;;;11.10;99.90;;;;;;4999946;28;20448;-92
2022/09/24 01:31:47;;;;;;;13.17;11.93;;;11.10;99.90;;;;;;4999119;28;20979;-92
2022/09/24 01:34:19;;;;;;;12.33;11.23;;;11.10;99.90;;;;;;5002656;28;20977;-90
2022/09/24 01:36:47;;;;;;;12.70;11.57;;;11.20;99.90;;;;;;4985591;28;20993;-91
2022/09/24 01:39:17;;;;;;;13.17;11.83;;;11.10;99.90;;;;;;4988316;28;20436;-90
2022/09/24 01:41:47;;;;;;;13.47;12.20;;;11.10;99.90;;;;;;4999154;28;20451;-90
2022/09/24 01:44:25;;;;;;;12.17;11.17;;;11.10;99.90;;;;;;5005022;28;20933;-90
2022/09/24 01:46:54;;;;;;;12.80;11.60;;;11.10;99.90;;;;;;4983377;28;20454;-90
2022/09/24 01:49:39;;;;;;;12.27;11.13;;;11.00;99.90;;;;;;4986118;28;21640;-92
2022/09/24 01:52:22;;;;;;;13.00;11.80;;;11.10;99.90;;;;;;4995332;28;20445;-90
2022/09/24 01:54:56;;;;;;;13.20;12.00;;;11.00;99.90;;;;;;4992387;28;21257;-92
2022/09/24 01:57:31;;;;;;;12.27;11.07;;;11.00;99.90;;;;;;5002534;28;20479;-91
2022/09/24 02:00:01;;;;;;;13.10;11.90;;;11.00;99.90;;;;;;4968978;28;20441;-91
2022/09/24 02:02:35;;;;;;;13.50;12.30;;;10.90;99.90;;;;;;4985537;28;20449;-92
2022/09/24 02:05:23;;;;;;;11.83;10.80;;;10.90;99.90;;;;;;4983940;28;20447;-92
2022/09/24 02:08:12;;;;;;;12.53;11.27;;;10.90;99.90;;;;;;4986580;28;20779;-92
2022/09/24 02:11:04;;;;;;;13.73;12.33;;;10.90;99.90;;;;;;4989464;28;21007;-93
2022/09/24 02:13:41;;;;;;;12.07;10.80;;;10.90;99.90;;;;;;4982174;28;20522;-91
2022/09/24 02:16:15;;;;;;;11.83;10.70;;;10.90;99.90;;;;;;4999478;28;20483;-90
2022/09/24 02:19:00;;;;;;;11.20;10.20;;;10.90;99.90;;;;;;4984173;28;20447;-91
2022/09/24 02:21:29;;;;;;;12.67;11.57;;;11.00;99.90;;;;;;4982400;28;20522;-91
2022/09/24 02:24:11;;;;;;;11.43;10.33;;;11.00;99.90;;;;;;4995938;28;20871;-91
2022/09/24 02:26:37;;;;;;;11.27;10.27;;;11.00;99.90;;;;;;5008555;28;20494;-90
2022/09/24 02:29:04;;;;;;;12.03;11.13;;;11.00;99.90;;;;;;4989695;28;20453;-91
2022/09/24 02:31:32;;;;;;;12.00;10.90;;;11.00;99.90;;;;;;4995343;28;20177;-90
2022/09/24 02:34:24;;;;;;;10.50;9.53;;;10.90;99.90;;;;;;4990710;28;20442;-89
2022/09/24 02:36:59;;;;;;;11.53;10.40;;;10.90;99.90;;;;;;4992923;28;20885;-90
2022/09/24 02:39:25;;;;;;;11.97;10.60;;;10.90;99.90;;;;;;4990606;28;20433;-89
2022/09/24 02:41:54;;;;;;;12.90;11.70;;;10.80;99.90;;;;;;4994195;28;21032;-90
2022/09/24 02:44:21;;;;;;;12.30;11.33;;;10.90;99.90;;;;;;5008688;28;20433;-91
2022/09/24 02:46:48;;;;;;;11.30;10.20;;;10.90;99.90;;;;;;4998062;28;20448;-89
2022/09/24 02:49:14;;;;;;;11.70;10.70;;;10.90;99.90;;;;;;4994507;28;20475;-91
2022/09/24 02:51:40;;;;;;;11.57;10.47;;;10.90;99.90;;;;;;4992217;28;20448;-90
2022/09/24 02:54:09;;;;;;;10.90;10.03;;;10.90;99.90;;;;;;4994057;28;20480;-91
2022/09/24 02:56:35;;;;;;;11.87;10.60;;;10.90;99.90;;;;;;4996495;28;20557;-91
2022/09/24 02:59:01;;;;;;;11.90;10.90;;;11.00;99.90;;;;;;5019636;28;20789;-90
2022/09/24 03:01:28;;;;;;;11.87;10.70;;;11.00;99.90;;;;;;4994683;28;20448;-89
2022/09/24 03:03:53;;;;;;;13.60;10.83;;;11.00;99.90;;;;;;5014656;28;20754;-90
2022/09/24 03:06:19;;;;;;;11.33;10.33;;;11.00;99.90;;;;;;4993187;28;21245;-90
2022/09/24 03:08:45;;;;;;;11.50;10.47;;;11.00;99.90;;;;;;4989696;28;20185;-89
2022/09/24 03:11:12;;;;;;;11.70;10.70;;;11.00;99.90;;;;;;4993721;28;20185;-89
2022/09/24 03:13:39;;;;;;;11.33;10.40;;;11.00;99.90;;;;;;4992927;28;20801;-90
2022/09/24 03:16:05;;;;;;;10.10;9.20;;;11.00;99.90;;;;;;4999784;28;20475;-90
2022/09/24 03:18:32;;;;;;;11.93;10.80;;;11.00;99.90;;;;;;4997117;28;20463;-90
2022/09/24 03:21:03;;;;;;;11.53;10.40;;;11.00;99.90;;;;;;4997298;28;20439;-91
2022/09/24 03:23:28;;;;;;;11.40;10.30;;;11.10;99.90;;;;;;5007647;28;20800;-91
2022/09/24 03:25:54;;;;;;;11.13;10.17;;;11.10;99.90;;;;;;4985287;28;20440;-89
2022/09/24 03:28:20;;;;;;;12.37;11.20;;;11.10;99.90;;;;;;4988191;28;20507;-92
2022/09/24 03:30:59;;;;;;;10.90;10.00;;;11.10;99.90;;;;;;4987971;28;20743;-90
2022/09/24 03:33:47;;;;;;;12.30;11.10;;;11.00;99.90;;;;;;4989398;28;20443;-91
2022/09/24 03:36:19;;;;;;;11.50;10.43;;;11.10;99.90;;;;;;4991036;28;20500;-90
2022/09/24 03:38:47;;;;;;;11.90;10.90;;;11.00;99.90;;;;;;4986726;28;21611;-90
2022/09/24 03:41:13;;;;;;;12.80;11.60;;;11.10;99.90;;;;;;4984486;28;20803;-91
2022/09/24 03:43:43;;;;;;;11.93;10.83;;;11.10;99.90;;;;;;4990426;28;20439;-91
2022/09/24 03:46:12;;;;;;;11.47;10.27;;;11.10;99.90;;;;;;4988110;28;20514;-89
2022/09/24 03:49:08;;;;;;;12.60;11.47;;;11.10;99.90;;;;;;4987182;28;20513;-92
2022/09/24 03:51:33;;;;;;;10.53;9.70;;;11.10;99.90;;;;;;4979520;28;20501;-92
2022/09/24 03:54:23;;;;;;;12.53;11.33;;;11.10;99.90;;;;;;4983785;28;20451;-91
2022/09/24 03:56:50;;;;;;;11.40;10.40;;;11.20;99.90;;;;;;4987129;28;20307;-91
2022/09/24 03:59:20;;;;;;;11.00;10.10;;;11.20;99.90;;;;;;4991825;28;20443;-92
2022/09/24 04:01:45;;;;;;;12.37;11.17;;;11.20;99.90;;;;;;4984616;28;20985;-90
2022/09/24 04:04:15;;;;;;;10.90;9.90;;;11.20;99.90;;;;;;4986642;28;21051;-91
2022/09/24 04:06:41;;;;;;;12.73;11.50;;;11.20;99.90;;;;;;4988383;28;20201;-90
2022/09/24 04:09:13;;;;;;;13.63;12.40;;;11.20;99.90;;;;;;4980499;28;20428;-89
2022/09/24 04:11:42;;;;;;;13.17;11.90;;;11.30;99.90;;;;;;4985022;28;20468;-91
2022/09/24 04:14:08;;;;;;;13.17;11.97;;;11.20;99.90;;;;;;4988205;28;20471;-90
2022/09/24 04:16:35;;;;;;;11.40;10.40;;;11.20;99.90;;;;;;4984613;28;20479;-89
2022/09/24 04:19:00;;;;;;;12.17;10.93;;;11.20;99.90;;;;;;4987725;28;20448;-92
2022/09/24 04:21:26;;;;;;;12.23;11.13;;;11.20;99.90;;;;;;4999142;28;20452;-91
2022/09/24 04:23:52;;;;;;;13.03;11.40;;;11.20;99.90;;;;;;4984537;28;20916;-91
2022/09/24 04:26:19;;;;;;;12.47;11.17;;;11.20;99.90;;;;;;4986744;28;20855;-91
2022/09/24 04:28:51;;;;;;;13.33;12.23;;;11.10;99.90;;;;;;4986984;28;21254;-91
2022/09/24 04:31:19;;;;;;;12.33;11.13;;;11.10;99.90;;;;;;5003484;28;20483;-90
2022/09/24 04:33:51;;;;;;;11.30;10.20;;;11.10;99.90;;;;;;4991970;28;20448;-90
2022/09/24 04:36:39;;;;;;;11.40;10.30;;;11.10;99.90;;;;;;4993131;28;20476;-90
2022/09/24 04:39:13;;;;;;;10.50;9.60;;;11.10;99.90;;;;;;4992393;28;20460;-90
2022/09/24 04:42:02;;;;;;;11.60;10.40;;;11.00;99.90;;;;;;4999515;28;20448;-90
2022/09/24 04:44:48;;;;;;;11.20;10.20;;;10.80;99.90;;;;;;4986770;28;20797;-91
2022/09/24 04:47:18;;;;;;;10.97;9.97;;;10.80;99.90;;;;;;4994799;28;20981;-92
2022/09/24 04:49:46;;;;;;;11.70;10.70;;;10.70;99.90;;;;;;4991203;28;20439;-92
2022/09/24 04:52:15;;;;;;;12.70;11.50;;;10.70;99.90;;;;;;4991251;28;20192;-94
2022/09/24 04:54:46;;;;;;;11.40;10.30;;;10.80;99.90;;;;;;4987376;28;20444;-92
2022/09/24 04:57:44;;;;;;;11.23;10.20;;;10.80;99.90;;;;;;4970958;28;20797;-90
2022/09/24 05:00:19;;;;;;;11.00;10.00;;;10.80;99.90;;;;;;4990280;28;20447;-92
2022/09/24 05:02:45;;;;;;;11.67;10.63;;;10.70;99.90;;;;;;4989619;28;20459;-91
2022/09/24 05:05:13;;;;;;;11.70;10.60;;;10.80;99.90;;;;;;4990898;28;20447;-90
2022/09/24 05:07:43;;;;;;;10.97;9.97;;;10.80;99.90;;;;;;4990826;28;20448;-91
2022/09/24 05:10:15;;;;;;;11.27;10.17;;;10.90;99.90;;;;;;4990128;28;20444;-92
2022/09/24 05:12:43;;;;;;;11.60;10.50;;;10.90;99.90;;;;;;4983694;28;20466;-91
2022/09/24 05:15:19;;;;;;;13.80;10.37;;;10.90;99.90;;;;;;4985148;28;21621;-92
2022/09/24 05:17:45;;;;;;;11.67;10.67;;;10.90;99.90;;;;;;5008684;28;20861;-91
2022/09/24 05:20:12;;;;;;;11.70;10.70;;;10.80;99.90;;;;;;4983723;28;20487;-91
2022/09/24 05:22:44;;;;;;;12.40;10.13;;;10.80;99.90;;;;;;4988660;28;20903;-91
2022/09/24 05:25:11;;;;;;;12.70;11.60;;;10.90;99.90;;;;;;4988644;28;20596;-92
2022/09/24 05:27:48;;;;;;;11.43;10.50;;;10.90;99.90;;;;;;5005735;28;20435;-92
2022/09/24 05:30:15;;;;;;;11.90;10.80;;;10.90;99.90;;;;;;4983056;28;20440;-91
2022/09/24 05:35:56;;;;;;;11.53;10.63;;;10.80;99.90;;;;;;4983278;28;20474;-91
2022/09/24 05:38:28;;;;;;;10.80;9.80;;;10.80;99.90;;;;;;4985280;28;20528;-89
2022/09/24 05:40:54;;;;;;;12.63;10.87;;;10.90;99.90;;;;;;4986931;28;20659;-90
2022/09/24 05:43:20;;;;;;;12.43;11.00;;;10.90;99.90;;;;;;4980652;28;20984;-90
2022/09/24 05:45:48;;;;;;;11.03;10.03;;;10.90;99.90;;;;;;4989050;28;20188;-91
2022/09/24 05:48:14;;;;;;;10.90;9.80;;;10.90;99.90;;;;;;4986049;28;20185;-91
2022/09/24 05:50:40;;;;;;;10.90;9.80;;;11.00;99.90;;;;;;4987550;28;20436;-90
2022/09/24 05:53:06;;;;;;;11.00;9.97;;;11.00;99.90;;;;;;4983783;28;20654;-91
2022/09/24 05:55:33;;;;;;;11.97;10.97;;;11.10;99.90;;;;;;5003118;28;20433;-90
2022/09/24 05:58:33;;;;;;;11.00;10.10;;;11.10;99.90;;;;;;4999975;28;21298;-91
2022/09/24 06:01:24;;;;;;;11.67;10.73;;;11.10;99.90;;;;;;4991726;28;20768;-89
2022/09/24 06:03:59;;;;;;;11.80;10.80;;;11.20;99.90;;;;;;4991691;28;20809;-91
2022/09/24 06:06:25;;;;;;;11.03;10.10;;;11.20;99.90;;;;;;4986381;28;20450;-91
2022/09/24 06:08:52;;;;;;;12.03;11.03;;;11.10;99.90;;;;;;4989781;28;20264;-91
2022/09/24 06:11:18;;;;;;;12.90;11.77;;;11.10;99.90;;;;;;4987513;28;20451;-93
2022/09/24 06:13:44;;;;;;;12.23;10.97;;;11.10;99.90;;;;;;4984448;28;20527;-92
2022/09/24 06:16:19;;;;;;;10.77;9.87;;;11.20;99.90;;;;;;4986660;28;20605;-93
2022/09/24 06:18:46;;;;;;;12.03;10.80;;;11.20;99.90;;;;;;4971917;28;20527;-91
2022/09/24 06:21:20;;;;;;;12.90;11.77;;;11.30;99.90;;;;;;4990048;28;20195;-92
2022/09/24 06:23:47;;;;;;;11.40;10.40;;;11.40;99.90;;;;;;4988442;28;21252;-91
2022/09/24 06:26:13;;;;;;;11.50;10.40;;;11.50;99.90;;;;;;4979130;28;20449;-90
2022/09/24 06:28:43;;;;;;;11.10;10.10;;;11.60;99.90;;;;;;5003090;28;20661;-90
2022/09/24 06:31:14;;;;;;;12.20;11.10;;;11.60;99.90;;;;;;4988254;28;20447;-92
2022/09/24 06:33:55;;;;;;;12.20;11.03;;;11.70;99.90;;;;;;4994528;28;20434;-93
2022/09/24 06:36:56;;;;;;;11.30;10.20;;;11.80;99.90;;;;;;4986042;28;20985;-91
2022/09/24 06:39:59;;;;;;;11.87;10.23;;;11.90;99.90;;;;;;4980420;28;21109;-93
2022/09/24 06:42:49;;;;;;;11.60;10.53;;;12.00;99.90;;;;;;4986883;28;22298;-92
2022/09/24 06:45:52;;;;;;;11.40;10.40;;;11.90;99.90;;;;;;4989703;28;20451;-91
2022/09/24 06:48:33;;;;;;;11.50;10.40;;;12.10;99.90;;;;;;4989943;28;20444;-91
2022/09/24 06:51:23;;;;;;;12.00;11.00;;;12.10;99.90;;;;;;4984942;28;20439;-89
2022/09/24 06:53:52;;;;;;;11.13;10.10;;;12.20;99.90;;;;;;4986208;28;20185;-90
2022/09/24 06:56:18;;;;;;;12.67;10.80;;;12.20;99.90;;;;;;4983099;28;20491;-90
2022/09/24 06:58:43;;;;;;;12.20;10.27;;;12.30;99.90;;;;;;4979202;28;21829;-88
2022/09/24 07:01:11;;;;;;;10.70;9.80;;;12.40;99.90;;;;;;4983806;28;20182;-89
2022/09/24 07:03:38;;;;;;;11.17;10.17;;;12.50;99.90;;;;;;5000047;28;20196;-87
2022/09/24 07:06:13;;;;;;;13.57;10.73;;;12.50;99.90;;;;;;4982858;28;22530;-86
2022/09/24 07:08:42;;;;;;;11.40;10.20;;;12.50;99.90;;;;;;4984058;28;20439;-87
2022/09/24 07:11:25;;;;;;;11.93;10.50;;;12.50;99.90;;;;;;4984432;28;20769;-88
2022/09/24 07:14:00;;;;;;;11.43;10.43;;;12.60;99.90;;;;;;4987444;28;20456;-87
2022/09/24 07:16:29;;;;;;;11.37;10.27;;;12.70;99.90;;;;;;4984512;28;20494;-88
2022/09/24 07:18:57;;;;;;;11.13;10.07;;;12.70;99.90;;;;;;4983991;28;20200;-89
2022/09/24 07:21:30;;;;;;;11.07;10.17;;;12.70;99.90;;;;;;5003148;28;20474;-90
2022/09/24 07:23:56;;;;;;;12.03;10.83;;;12.70;99.90;;;;;;4986369;28;20264;-90
2022/09/24 07:27:20;;;;;;;;;;;;;;;;;;;;;
2022/09/24 07:33:14;;;;;;;10.90;9.80;;;12.90;99.90;;;;;;4978822;28;21076;-91
2022/09/24 07:36:12;;;;;;;11.37;10.27;;;13.00;99.90;;;;;;5002652;28;20471;-89
2022/09/24 07:39:24;;;;;;;;;;;;;;;;;;;;;
2022/09/24 07:42:13;;;;;;;11.13;10.00;;;13.00;99.90;;;;;;4975868;28;21018;-91
2022/09/24 07:45:16;;;;;;;11.47;10.57;;;13.20;99.90;;;;;;5009247;28;20786;-91
2022/09/24 07:47:41;;;;;;;12.27;11.03;;;13.30;99.90;;;;;;5000497;28;20454;-88
2022/09/24 07:50:08;;;;;;;19.23;11.17;;;13.40;99.90;;;;;;4990519;28;21909;-89
2022/09/24 07:52:34;;;;;;;11.50;9.97;;;13.50;99.90;;;;;;4984907;28;20284;-88
2022/09/24 07:55:06;;;;;;;11.30;10.27;;;13.50;99.90;;;;;;4983680;28;20545;-90
2022/09/24 07:57:31;;;;;;;12.40;9.70;;;13.50;99.90;;;;;;4979220;28;20483;-91
2022/09/24 07:59:57;;;;;;;11.30;10.20;;;13.60;99.90;;;;;;4985403;28;20798;-90
2022/09/24 08:02:25;;;;;;;16.23;11.43;;;13.80;99.90;;;;;;4985298;28;20668;-90
2022/09/24 08:04:51;;;;;;;9.90;9.00;;;13.90;99.90;;;;;;4983402;28;20683;-89
2022/09/24 08:07:16;;;;;;;11.40;10.40;;;14.00;99.90;;;;;;4986019;28;20578;-86
2022/09/24 08:09:42;;;;;;;9.10;8.33;;;14.10;99.90;;;;;;5010925;28;20196;-85
2022/09/24 08:12:09;;;;;;;9.53;8.53;;;14.30;99.90;;;;;;4987398;28;20189;-87
2022/09/24 08:15:01;;;;;;;10.73;9.63;;;14.30;99.90;;;;;;4985813;28;20216;-89
2022/09/24 08:17:30;;;;;;;11.47;10.53;;;14.40;99.90;;;;;;4994468;28;20980;-90
2022/09/24 08:23:44;;;;;;;10.53;9.53;;;14.30;99.90;;;;;;4976104;28;20440;-90
2022/09/24 08:26:14;;;;;;;10.80;9.80;;;14.20;99.90;;;;;;4997080;28;20792;-89
2022/09/24 08:31:46;;;;;;;11.57;10.50;;;14.20;99.90;;;;;;5031608;22;20579;-93
2022/09/24 08:34:14;;;;;;;11.57;10.40;;;14.20;99.90;;;;;;5002522;28;20443;-90
2022/09/24 08:36:45;;;;;;;11.40;10.10;;;14.30;99.90;;;;;;5011879;28;21162;-90
2022/09/24 08:39:14;;;;;;;10.17;9.27;;;14.30;99.90;;;;;;5011273;28;20470;-89
2022/09/24 08:41:56;;;;;;;11.17;9.90;;;14.40;99.90;;;;;;5016637;28;20438;-89
2022/09/24 08:47:36;;;;;;;13.83;12.43;;;14.50;99.90;;;;;;5013547;28;20485;-87
2022/09/24 08:50:10;;;;;;;10.27;9.40;;;14.60;99.90;;;;;;5011938;28;20450;-90
2022/09/24 08:53:22;;;;;;;80.73;73.13;;;14.60;99.90;;;;;;5013851;28;20894;-88
2022/09/24 08:55:52;;;;;;;10.43;9.47;;;14.70;99.90;;;;;;5011023;28;20779;-87
2022/09/24 08:58:27;;;;;;;10.97;10.07;;;14.80;99.90;;;;;;5011840;28;20849;-88
2022/09/24 09:01:11;;;;;;;10.87;10.00;;;14.80;99.90;;;;;;5014062;28;20433;-89
2022/09/24 09:03:52;;;;;;;10.87;9.80;;;14.70;99.90;;;;;;5011792;28;20800;-88
2022/09/24 09:06:55;;;;;;;11.40;10.23;;;14.70;99.90;;;;;;5013725;28;21035;-90
2022/09/24 09:09:24;;;;;;;10.30;9.50;;;14.70;99.90;;;;;;5009618;28;20541;-89
2022/09/24 09:11:56;;;;;;;10.50;9.60;;;14.70;99.90;;;;;;5008070;28;20526;-89
2022/09/24 09:14:42;;;;;;;10.33;9.47;;;14.80;99.90;;;;;;4999333;28;20525;-90
2022/09/24 09:17:59;;;;;;;8.80;8.00;;;14.80;99.90;;;;;;5009659;28;20478;-91
2022/09/24 09:20:38;;;;;;;8.50;7.77;;;15.00;99.90;;;;;;5003177;28;20451;-89
2022/09/24 09:23:33;;;;;;;12.37;7.77;;;15.10;99.90;;;;;;5022143;28;20442;-91
2022/09/24 09:26:01;;;;;;;8.53;7.77;;;15.10;99.90;;;;;;5013305;28;20872;-89
2022/09/24 09:28:28;;;;;;;7.70;7.00;;;15.30;99.90;;;;;;5011243;28;20825;-89
2022/09/24 09:31:25;;;;;;;8.47;7.73;;;15.30;99.90;;;;;;5004205;28;20451;-89
2022/09/24 09:34:19;;;;;;;8.20;7.60;;;15.40;99.90;;;;;;5010100;28;20450;-87
2022/09/24 09:37:11;;;;;;;8.00;7.20;;;15.40;99.90;;;;;;5016050;28;20566;-82
2022/09/24 09:40:01;;;;;;;8.97;8.10;;;15.30;99.90;;;;;;5008371;28;20501;-85
2022/09/24 09:42:35;;;;;;;8.10;7.40;;;15.20;99.90;;;;;;5012545;28;20457;-87
2022/09/24 09:45:23;;;;;;;7.07;6.47;;;15.30;99.90;;;;;;5016160;28;20438;-88
2022/09/24 09:48:13;;;;;;;6.27;5.73;;;15.30;99.90;;;;;;5007837;28;20579;-88
2022/09/24 09:50:54;;;;;;;7.17;6.57;;;15.40;99.90;;;;;;5002139;28;20474;-87
2022/09/24 09:53:25;;;;;;;7.90;6.57;;;15.50;99.90;;;;;;5003521;28;20462;-88
2022/09/24 09:56:11;;;;;;;7.20;6.50;;;15.70;99.90;;;;;;5023249;28;20834;-85
2022/09/24 09:58:54;;;;;;;5.87;5.47;;;15.70;99.90;;;;;;5000615;28;20434;-86
2022/09/24 10:01:36;;;;;;;6.00;5.50;;;15.50;99.90;;;;;;5000251;28;20451;-87
2022/09/24 10:04:03;;;;;;;4.97;4.60;;;15.50;99.90;;;;;;5002698;28;20443;-87
2022/09/24 10:06:35;;;;;;;5.20;4.80;;;15.40;99.90;;;;;;5000967;28;20585;-87
2022/09/24 10:09:21;;;;;;;5.33;4.93;;;15.30;99.90;;;;;;5018983;28;20447;-87
2022/09/24 10:11:47;;;;;;;5.30;4.80;;;15.30;99.90;;;;;;5002263;28;20886;-87
2022/09/24 10:14:17;;;;;;;5.70;5.20;;;15.30;99.90;;;;;;5003881;28;20427;-87
2022/09/24 10:16:45;;;;;;;6.33;5.73;;;15.20;99.90;;;;;;5002728;28;21213;-88
2022/09/24 10:19:21;;;;;;;5.73;5.33;;;15.20;99.90;;;;;;5006598;28;20438;-88
2022/09/24 10:22:05;;;;;;;6.37;5.87;;;15.20;99.90;;;;;;4996924;28;20434;-87
2022/09/24 10:24:32;;;;;;;6.70;6.00;;;15.20;99.90;;;;;;4993305;28;20440;-84
2022/09/24 10:26:59;;;;;;;6.57;6.03;;;15.30;99.90;;;;;;4993083;28;20948;-84
2022/09/24 10:32:25;;;;;;;6.97;6.37;;;15.10;99.90;;;;;;4996478;28;20556;-85
2022/09/24 10:34:59;;;;;;;7.97;6.97;;;15.10;99.90;;;;;;4998152;28;20434;-85
2022/09/24 10:37:26;;;;;;;7.10;6.50;;;15.00;99.90;;;;;;5015506;28;20830;-87
2022/09/24 10:40:00;;;;;;;7.10;6.47;;;14.90;99.90;;;;;;5001886;28;20435;-87
2022/09/24 10:42:28;;;;;;;6.83;6.30;;;15.00;99.90;;;;;;5000129;28;20542;-87
2022/09/24 10:44:55;;;;;;;7.00;6.40;;;14.90;99.90;;;;;;5001975;28;20431;-87
2022/09/24 10:47:36;;;;;;;6.50;6.00;;;14.90;99.90;;;;;;4999560;28;20453;-88
2022/09/24 10:50:24;;;;;;;7.73;7.03;;;15.00;99.90;;;;;;5007273;28;20488;-87
2022/09/24 10:52:59;;;;;;;7.57;6.63;;;15.20;99.90;;;;;;5029187;28;21013;-87
2022/09/24 10:55:33;;;;;;;7.00;6.50;;;15.20;99.90;;;;;;5009440;28;21013;-87
2022/09/24 10:58:02;;;;;;;6.87;6.27;;;15.40;99.90;;;;;;5003702;28;20531;-87
2022/09/24 11:00:42;;;;;;;6.77;6.17;;;15.30;99.90;;;;;;5008044;28;20527;-86
2022/09/24 11:03:41;;;;;;;7.10;6.50;;;15.50;99.90;;;;;;5019733;28;20987;-87
2022/09/24 11:06:39;;;;;;;8.90;7.07;;;15.80;99.90;;;;;;5000652;28;20444;-87
2022/09/24 11:09:15;;;;;;;7.37;6.77;;;16.30;99.90;;;;;;5005292;28;20474;-86
2022/09/24 11:12:04;;;;;;;7.00;6.40;;;16.60;99.90;;;;;;5004913;28;20431;-86
2022/09/24 11:14:29;;;;;;;7.07;6.47;;;16.60;99.90;;;;;;5002526;28;20446;-87
2022/09/24 11:17:10;;;;;;;7.27;6.73;;;16.70;99.90;;;;;;5002389;28;21004;-87
2022/09/24 11:20:14;;;;;;;7.80;7.10;;;16.70;99.90;;;;;;5005463;28;20985;-87
2022/09/24 11:23:05;;;;;;;7.23;6.60;;;16.50;99.90;;;;;;5004350;28;20446;-87
2022/09/24 11:25:57;;;;;;;6.50;5.90;;;16.60;99.90;;;;;;5001809;28;20443;-87
2022/09/24 11:28:44;;;;;;;7.00;5.93;;;17.00;99.90;;;;;;5024343;28;20915;-87
2022/09/24 11:31:39;;;;;;;7.47;6.77;;;17.20;99.90;;;;;;5005609;28;20458;-85
2022/09/24 11:34:50;;;;;;;6.53;6.00;;;17.40;99.90;;;;;;5001057;28;20455;-87
2022/09/24 11:37:55;;;;;;;7.17;6.50;;;16.90;99.90;;;;;;5008975;28;20517;-87
2022/09/24 11:40:33;;;;;;;5.80;5.40;;;16.60;99.90;;;;;;5009882;28;20446;-87
2022/09/24 11:43:25;;;;;;;6.80;6.20;;;16.40;99.90;;;;;;5007326;28;20541;-87
2022/09/24 11:46:06;;;;;;;7.20;6.50;;;16.30;99.90;;;;;;5010073;28;20466;-87
2022/09/24 11:48:56;;;;;;;7.27;6.57;;;16.30;99.90;;;;;;5012054;28;20509;-87
2022/09/24 11:51:43;;;;;;;7.83;7.13;;;16.30;99.90;;;;;;4995356;28;20442;-87
2022/09/24 11:54:12;;;;;;;7.93;7.27;;;16.40;99.90;;;;;;5007110;28;20444;-87
2022/09/24 11:56:46;;;;;;;8.10;7.40;;;16.40;99.90;;;;;;5008329;28;20479;-87
2022/09/24 11:59:47;;;;;;;6.80;6.30;;;16.50;99.90;;;;;;5018513;28;20492;-87
2022/09/24 12:02:23;;;;;;;7.23;6.67;;;16.40;99.90;;;;;;4996922;28;20442;-87
2022/09/24 12:05:12;;;;;;;6.60;6.00;;;16.40;99.90;;;;;;5004699;28;20446;-88
2022/09/24 12:07:48;;;;;;;7.70;7.00;;;16.40;99.90;;;;;;5012366;28;20439;-87
2022/09/24 12:10:16;;;;;;;8.63;7.33;;;16.50;99.90;;;;;;5005038;28;20473;-87
2022/09/24 12:12:46;;;;;;;7.93;7.20;;;16.70;99.90;;;;;;5006195;28;20454;-87
2022/09/24 12:15:19;;;;;;;7.13;6.47;;;16.80;99.90;;;;;;5006072;28;20431;-87
2022/09/24 12:17:51;;;;;;;7.40;6.67;;;17.10;99.90;;;;;;5004674;28;20481;-88
2022/09/24 12:20:32;;;;;;;7.50;6.80;;;17.30;99.90;;;;;;5004904;28;20450;-87
2022/09/24 12:23:03;;;;;;;9.73;7.97;;;17.40;99.90;;;;;;4998422;28;20916;-87
2022/09/24 12:25:38;;;;;;;7.70;6.00;;;17.40;99.90;;;;;;5005427;28;20975;-87
2022/09/24 12:28:04;;;;;;;6.43;5.93;;;17.30;99.90;;;;;;5008036;28;20439;-87
2022/09/24 12:34:27;;;;;;;5.77;5.30;;;17.00;99.90;;;;;;4990231;28;20445;-87
2022/09/24 12:37:04;;;;;;;6.30;5.80;;;16.90;99.90;;;;;;5002742;28;20597;-88
2022/09/24 12:39:54;;;;;;;5.87;5.37;;;16.70;99.90;;;;;;4999655;28;20439;-88
2022/09/24 12:42:31;;;;;;;5.03;4.60;;;16.70;99.90;;;;;;5007395;28;20567;-88
2022/09/24 12:44:59;;;;;;;6.10;4.70;;;16.70;99.90;;;;;;5003556;28;20442;-88
2022/09/24 12:47:51;;;;;;;5.27;4.77;;;16.50;99.90;;;;;;5009004;28;20447;-87
2022/09/24 12:50:23;;;;;;;5.10;4.70;;;16.40;99.90;;;;;;5003577;28;20492;-87
2022/09/24 12:52:53;;;;;;;4.73;4.43;;;16.40;99.90;;;;;;5001492;28;20538;-87
2022/09/24 12:55:23;;;;;;;4.70;4.40;;;16.20;99.90;;;;;;5004442;28;20435;-87
2022/09/24 12:57:53;;;;;;;4.83;4.43;;;16.20;99.90;;;;;;5000655;28;20486;-87
2022/09/24 13:00:40;;;;;;;4.57;4.20;;;16.10;99.90;;;;;;5003439;28;20438;-87
2022/09/24 13:03:38;;;;;;;5.37;4.73;;;16.00;99.90;;;;;;5007111;28;20435;-87
2022/09/24 13:06:30;;;;;;;5.13;4.73;;;15.80;99.90;;;;;;5000546;28;20945;-86
2022/09/24 13:08:56;;;;;;;5.20;4.80;;;15.80;99.90;;;;;;5009758;28;20432;-87
2022/09/24 13:11:37;;;;;;;5.50;5.00;;;15.80;99.90;;;;;;5008111;28;20816;-87
2022/09/24 13:14:26;;;;;;;5.90;5.50;;;15.80;99.90;;;;;;5006740;28;20699;-87
2022/09/24 13:16:55;;;;;;;6.33;5.83;;;15.80;99.90;;;;;;5004084;28;20484;-88
2022/09/24 13:19:58;;;;;;;5.83;5.33;;;15.80;99.90;;;;;;5004749;28;20448;-87
2022/09/24 13:22:32;;;;;;;5.80;5.30;;;15.90;99.90;;;;;;4977181;28;20545;-86
2022/09/24 13:25:53;;;;;;;5.20;4.70;;;15.90;99.90;;;;;;5027220;28;20437;-85
2022/09/24 13:28:27;;;;;;;5.90;5.40;;;15.90;99.90;;;;;;5019957;28;20435;-85
2022/09/24 13:31:19;;;;;;;5.43;5.00;;;15.90;99.90;;;;;;5006842;28;20865;-86
2022/09/24 13:33:51;;;;;;;6.33;5.77;;;15.90;99.90;;;;;;4998704;28;20497;-85
2022/09/24 13:36:24;;;;;;;6.03;5.43;;;15.80;99.90;;;;;;5000547;28;20483;-86
2022/09/24 13:39:05;;;;;;;5.97;5.57;;;15.60;99.90;;;;;;5007340;28;20974;-86
2022/09/24 13:42:14;;;;;;;6.70;6.10;;;15.60;99.90;;;;;;5006658;28;20447;-86
2022/09/24 13:44:53;;;;;;;6.20;5.70;;;15.50;99.90;;;;;;5008826;28;20451;-86
2022/09/24 13:47:41;;;;;;;6.43;5.90;;;15.40;99.90;;;;;;5021192;28;20452;-87
2022/09/24 13:50:39;;;;;;;5.97;5.37;;;15.30;99.90;;;;;;5020705;28;20446;-86
2022/09/24 13:53:22;;;;;;;6.50;6.00;;;15.40;99.90;;;;;;5001660;28;20452;-86